SUB weather

Juanda International Airport
Surabaya, Jawa Timur, Indonesia

Public forecast

Using degrees Celsius for public forecast. Weather courtesy of forecast.io.

METAR (pilot weather report)

Retrieved 2019/05/22 04:00 UTC (12 minutes ago):

WARR 220400Z 11008KT 080V140 9999 FEW020 31/22 Q1011 NOSIG

TAF (pilot weather forecast)

Forecast is more than 12 hours old.

Retrieved 2019/05/21 00:00 UTC (1 day ago):

TAF WARR 212300Z 2200/2300 10010KT 9999 FEW020 BECMG 2214/2216 24004KT 5000 HZ TEMPO 2220/2300 3000 HZ